Elizabeth Mc Allister — WDB7652 — position and weather

sailwx.info

Track history (hours):
 
Tides and Currents Weather Stations Pressure Air Temp Water Temp Dewpoint Dewpoint Depression Visibility Wind Speed Wind Dir Waves Ship Positions

Elizabeth Mc Allister

Owner: MC ALLISTER TOWING & TRANSPORTATION INC, NEW YORK, NY. More information available from US FCC via Universal Licensing System and Coast Guard Vessel Documentation Center.

Last reported at 2014-Oct-26 04:33 UTC. Time now 2014-Oct-26 05:05 UTC.
Position N 40°38' W 074°10'.

Length 31 m.

Type: Tug. MMSI: 366945680.

Date/timePositionNaut miles runAvg speedWind from/ knotsBaromVisibWave heightAir tempDewpointWater temp
2014-Oct-26 04:33N 40°38' W 074°10'0 0.0
2014-Oct-26 03:33N 40°38' W 074°10'0 0.0
2014-Oct-26 02:33N 40°38' W 074°10'0 0.0
2014-Oct-26 01:24N 40°38' W 074°10'0 0.0
2014-Oct-26 00:32N 40°38' W 074°10'0 0.0
2014-Oct-25 23:24N 40°38' W 074°10'0 0.0
2014-Oct-25 22:33N 40°38' W 074°10'0 0.0
2014-Oct-25 21:32N 40°38' W 074°10'0 0.0
2014-Oct-25 18:21N 40°38' W 074°10'0 0.0
2014-Oct-25 16:32N 40°38' W 074°10'0 0.0
2014-Oct-25 15:33N 40°38' W 074°10'0 0.0
2014-Oct-25 14:33N 40°38' W 074°10'0 0.0
2014-Oct-25 13:32N 40°38' W 074°10'0 0.0
2014-Oct-25 12:31N 40°38' W 074°10'0 0.0
2014-Oct-25 11:33N 40°38' W 074°10'0 0.0
2014-Oct-25 10:34N 40°38' W 074°10'0 0.0
2014-Oct-25 09:33N 40°38' W 074°10'0 0.0
2014-Oct-25 08:33N 40°38' W 074°10'0 0.0
2014-Oct-25 07:32N 40°38' W 074°10'0 0.0
2014-Oct-25 06:33N 40°38' W 074°10'0 0.0
2014-Oct-25 05:32N 40°38' W 074°10'0 0.0
2014-Oct-25 04:33N 40°38' W 074°10'0 0.0
2014-Oct-25 03:14N 40°38' W 074°10'0 0.0
2014-Oct-25 02:33N 40°38' W 074°10'0 0.0
2014-Oct-25 01:06N 40°38' W 074°10'0 0.0
2014-Oct-25 00:17N 40°38' W 074°10'0 0.0
2014-Oct-24 23:27N 40°38' W 074°10'0 0.0
2014-Oct-24 22:22N 40°38' W 074°10'0 0.0
2014-Oct-24 21:32N 40°38' W 074°10'0 0.0
2014-Oct-24 20:33N 40°38' W 074°10'0 0.0
2014-Oct-24 19:33N 40°38' W 074°10'0 0.0
2014-Oct-24 18:30N 40°38' W 074°10'0 0.0
2014-Oct-24 17:33N 40°38' W 074°10'0 0.0
2014-Oct-24 16:32N 40°38' W 074°10'0 0.0
2014-Oct-24 15:33N 40°38' W 074°10'0 0.0
2014-Oct-24 14:33N 40°38' W 074°10'0 0.0
2014-Oct-24 13:33N 40°38' W 074°10'0 0.0
2014-Oct-24 12:33N 40°38' W 074°10'0 0.0
2014-Oct-24 11:33N 40°38' W 074°10'0 0.0
2014-Oct-24 10:33N 40°38' W 074°10'0 0.0
2014-Oct-24 09:33N 40°38' W 074°10'0 0.0
2014-Oct-24 08:33N 40°38' W 074°10'0 0.0
2014-Oct-24 07:33N 40°38' W 074°10'0 0.0
2014-Oct-24 06:33N 40°38' W 074°10'0 0.0
2014-Oct-24 05:33N 40°38' W 074°10'0 0.0
2014-Oct-24 04:33N 40°38' W 074°10'0 0.0
2014-Oct-24 03:33N 40°38' W 074°10'0 0.0
2014-Oct-24 02:33N 40°38' W 074°10'0 0.0
2014-Oct-24 01:33N 40°38' W 074°10'2 1.7
2014-Oct-24 00:29N 40°38' W 074°12'3 2.6
2014-Oct-23 23:26N 40°39' W 074°09'4 4.6
2014-Oct-23 22:33N 40°38' W 074°04'5 4.8
2014-Oct-23 21:33N 40°38' W 074°10'0 0.1
2014-Oct-23 20:33N 40°38' W 074°10'0 0.0
2014-Oct-23 19:33N 40°38' W 074°10'7 3.4
2014-Oct-23 17:32N 40°33' W 074°15'5 5.6
2014-Oct-23 16:33N 40°38' W 074°12'0 0.1
2014-Oct-23 15:30N 40°38' W 074°12'2 2.0
2014-Oct-23 14:33N 40°38' W 074°10'3 3.1
2014-Oct-23 13:33N 40°39' W 074°06'2 1.6
2014-Oct-23 12:33N 40°40' W 074°04'0 0.0
2014-Oct-23 11:33N 40°40' W 074°04'0 0.0
2014-Oct-23 10:33N 40°40' W 074°04'0 0.0
2014-Oct-23 09:33N 40°40' W 074°04'0 0.0
2014-Oct-23 08:33N 40°40' W 074°04'0 0.0
2014-Oct-23 07:33N 40°40' W 074°04'0 0.1
2014-Oct-23 06:33N 40°40' W 074°04'3 3.2
2014-Oct-23 05:33N 40°39' W 074°08'1 1.5
2014-Oct-23 04:33N 40°38' W 074°10'0 0.0
2014-Oct-23 03:33N 40°38' W 074°10'0 0.0
2014-Oct-23 02:33N 40°38' W 074°10'0 0.0
2014-Oct-23 01:33N 40°38' W 074°10'0 0.0
2014-Oct-23 00:33N 40°38' W 074°10'2 1.8
2014-Oct-22 23:31N 40°39' W 074°07'3 3.2
2014-Oct-22 22:33N 40°42' W 074°08'4 3.7
2014-Oct-22 21:33N 40°40' W 074°04'0 0.2
2014-Oct-22 20:33N 40°40' W 074°04'1 0.7
2014-Oct-22 19:33N 40°39' W 074°03'1 1.3
2014-Oct-22 18:33N 40°39' W 074°05'2 1.7
2014-Oct-22 17:33N 40°38' W 074°03'1 0.8
2014-Oct-22 16:33N 40°38' W 074°04'4 4.3
2014-Oct-22 15:33N 40°41' W 074°08'0 0.1
2014-Oct-22 14:33N 40°41' W 074°08'2 2.4
2014-Oct-22 13:33N 40°39' W 074°09'2 2.2
2014-Oct-22 12:33N 40°38' W 074°12'1 1.4
2014-Oct-22 11:33N 40°39' W 074°11'6 5.6
2014-Oct-22 10:33N 40°38' W 074°03'5 5.0
2014-Oct-22 09:33N 40°38' W 074°10'0 0.0
2014-Oct-22 08:33N 40°38' W 074°10'0 0.0
2014-Oct-22 07:33N 40°38' W 074°10'0 0.0
2014-Oct-22 06:33N 40°38' W 074°10'0 0.0
2014-Oct-22 05:33N 40°38' W 074°10'0 0.0
2014-Oct-22 04:33N 40°38' W 074°10'0 0.0
2014-Oct-22 03:33N 40°38' W 074°10'0 0.0
2014-Oct-22 02:33N 40°38' W 074°10'2 1.9
2014-Oct-22 01:33N 40°39' W 074°07'3 2.9
2014-Oct-22 00:33N 40°40' W 074°04'4 3.9
2014-Oct-21 23:33N 40°38' W 074°09'1 0.8
2014-Oct-21 22:33N 40°38' W 074°10'0 0.0
2014-Oct-21 21:33N 40°38' W 074°10'0 0.0
2014-Oct-21 20:33N 40°38' W 074°10'5 4.7
2014-Oct-21 19:33N 40°39' W 074°04'3 3.4
2014-Oct-21 18:33N 40°41' W 074°00'0 0.0
2014-Oct-21 17:33N 40°41' W 074°00'1 0.8
2014-Oct-21 16:33N 40°41' W 074°01'3 3.0
2014-Oct-21 15:33N 40°40' W 074°05'0 0.1
2014-Oct-21 14:33N 40°40' W 074°05'1 0.9
2014-Oct-21 13:33N 40°40' W 074°04'5 4.6
2014-Oct-21 12:33N 40°39' W 074°10'0 0.1
2014-Oct-21 11:33N 40°38' W 074°10'0 0.0
2014-Oct-21 10:33N 40°38' W 074°10'0 0.0
2014-Oct-21 09:33N 40°38' W 074°10'0 0.0
2014-Oct-21 08:33N 40°38' W 074°10'0 0.0
2014-Oct-21 07:31N 40°38' W 074°10'0 0.0
2014-Oct-21 06:33N 40°38' W 074°10'0 0.0
2014-Oct-21 05:32N 40°38' W 074°10'0 0.0
2014-Oct-21 04:33N 40°38' W 074°10'0 0.0
2014-Oct-21 03:33N 40°38' W 074°10'0 0.0
2014-Oct-21 02:33N 40°38' W 074°10'0 0.0
2014-Oct-21 01:33N 40°38' W 074°10'0 0.0
2014-Oct-21 00:33N 40°38' W 074°10'0 0.0
2014-Oct-20 23:33N 40°38' W 074°10'3 2.7
2014-Oct-20 22:33N 40°39' W 074°06'3 2.8
2014-Oct-20 21:32N 40°41' W 074°09'3 2.6
2014-Oct-20 20:33N 40°38' W 074°10'0 0.0
2014-Oct-20 19:33N 40°38' W 074°10'0 0.0
2014-Oct-20 18:33N 40°38' W 074°10'0 0.0
2014-Oct-20 17:33N 40°38' W 074°10'0 0.0
2014-Oct-20 16:33N 40°38' W 074°10'0 0.0
2014-Oct-20 15:33N 40°38' W 074°10'0 0.0
2014-Oct-20 14:33N 40°38' W 074°10'0 0.0
2014-Oct-20 13:33N 40°38' W 074°10'4 4.1
2014-Oct-20 12:33N 40°40' W 074°05'3 3.2
2014-Oct-20 11:33N 40°38' W 074°03'3 3.1
2014-Oct-20 10:33N 40°39' W 074°07'2 2.3
2014-Oct-20 09:33N 40°38' W 074°04'4 3.8
2014-Oct-20 08:32N 40°39' W 074°09'1 0.5
2014-Oct-20 07:33N 40°39' W 074°09'1 0.7
2014-Oct-20 06:34N 40°38' W 074°10'0 0.0
2014-Oct-20 05:34N 40°38' W 074°10'0 0.0
2014-Oct-20 04:33N 40°38' W 074°10'0 0.0
2014-Oct-20 03:34N 40°38' W 074°10'0 0.0
2014-Oct-20 02:34N 40°38' W 074°10'2 2.0
2014-Oct-20 01:33N 40°40' W 074°08'4 3.7
2014-Oct-20 00:34N 40°39' W 074°04'4 4.4
2014-Oct-19 23:33N 40°38' W 074°10'0 0.1
2014-Oct-19 22:34N 40°38' W 074°10'0 0.0
2014-Oct-19 21:33N 40°38' W 074°10'0 0.0
2014-Oct-19 20:33N 40°38' W 074°10'0 0.0
2014-Oct-19 19:31N 40°38' W 074°10'0 0.0
2014-Oct-19 18:34N 40°38' W 074°10'0 0.0
2014-Oct-19 17:33N 40°38' W 074°10'0 0.0
2014-Oct-19 16:33N 40°38' W 074°10'0 0.0
2014-Oct-19 15:33N 40°38' W 074°10'0 0.0
2014-Oct-19 14:33N 40°38' W 074°10'0 0.0
2014-Oct-19 13:34N 40°38' W 074°10'0 0.0
2014-Oct-19 12:34N 40°38' W 074°10'0 0.0
2014-Oct-19 11:34N 40°38' W 074°10'0 0.0
2014-Oct-19 10:33N 40°38' W 074°10'0 0.0
2014-Oct-19 09:29N 40°38' W 074°10'0 0.0
2014-Oct-19 08:33N 40°38' W 074°10'0 0.0
2014-Oct-19 07:33N 40°38' W 074°10'0 0.0
2014-Oct-19 06:33N 40°38' W 074°10'0 0.1
2014-Oct-19 05:33N 40°38' W 074°10'2 2.1
2014-Oct-19 04:33N 40°40' W 074°08'0 0.2
2014-Oct-19 03:31N 40°40' W 074°08'0 0.0
2014-Oct-19 02:33N 40°40' W 074°08'0 0.0
2014-Oct-19 01:34N 40°40' W 074°08'1 0.7
2014-Oct-19 00:33N 40°40' W 074°09'4 0.8
2014-Oct-18 19:27N 40°36' W 074°12'0 0.0
2014-Oct-18 18:31N 40°36' W 074°12'3 3.2
2014-Oct-18 17:33N 40°38' W 074°09'1 0.5
2014-Oct-18 16:29N 40°38' W 074°10'1 0.9
2014-Oct-18 15:30N 40°39' W 074°09'1 0.8
2014-Oct-18 14:33N 40°39' W 074°08'1 1.2
2014-Oct-18 13:30N 40°38' W 074°10'0 0.0
2014-Oct-18 12:33N 40°38' W 074°10'5 4.5
2014-Oct-18 11:31N 40°40' W 074°04'2 2.3
2014-Oct-18 10:33N 40°38' W 074°03'5 5.2
2014-Oct-18 09:34N 40°38' W 074°10'0 0.0
2014-Oct-18 08:34N 40°38' W 074°10'0 0.0
2014-Oct-18 07:34N 40°38' W 074°10'0 0.0
2014-Oct-18 06:33N 40°38' W 074°10'0 0.0
2014-Oct-18 05:34N 40°38' W 074°10'0 0.0
2014-Oct-18 04:33N 40°38' W 074°10'0 0.0
2014-Oct-18 03:33N 40°38' W 074°10'0 0.0
2014-Oct-18 02:33N 40°38' W 074°10'0 0.0
2014-Oct-18 01:33N 40°38' W 074°10'0 0.0
2014-Oct-18 00:33N 40°38' W 074°10'0 0.0
2014-Oct-17 23:33N 40°38' W 074°10'0 0.0
2014-Oct-17 22:34N 40°38' W 074°10'0 0.0
2014-Oct-17 21:34N 40°38' W 074°10'0 0.0
2014-Oct-17 20:33N 40°38' W 074°10'0 0.0
2014-Oct-17 19:34N 40°38' W 074°10'1 1.4
2014-Oct-17 18:33N 40°38' W 074°12'5 4.5
2014-Oct-17 17:22N 40°33' W 074°14'0 0.0
2014-Oct-17 15:15N 40°33' W 074°14'5 2.9
2014-Oct-17 13:33N 40°38' W 074°12'0 0.1
2014-Oct-17 12:21N 40°38' W 074°12'2 1.1
2014-Oct-17 10:33N 40°39' W 074°10'4 4.1
2014-Oct-17 09:34N 40°39' W 074°05'1 1.0
2014-Oct-17 08:33N 40°40' W 074°05'4 4.3
2014-Oct-17 07:33N 40°38' W 074°10'0 0.0
2014-Oct-17 06:33N 40°38' W 074°10'0 0.0
2014-Oct-17 05:23N 40°38' W 074°10'0 0.0
2014-Oct-17 04:34N 40°38' W 074°10'0 0.0
2014-Oct-17 03:31N 40°38' W 074°10'0 0.0
2014-Oct-17 02:28N 40°38' W 074°10'0 0.0
2014-Oct-17 01:08N 40°38' W 074°10'0 0.0
2014-Oct-17 00:30N 40°38' W 074°10'0 0.0
2014-Oct-16 23:26N 40°38' W 074°10'0 0.0
2014-Oct-16 22:28N 40°38' W 074°10'5 5.0
2014-Oct-16 21:34N 40°40' W 074°04'1 1.2
2014-Oct-16 20:33N 40°39' W 074°03'4 3.8
2014-Oct-16 19:33N 40°39' W 074°08'1 1.1
2014-Oct-16 18:33N 40°38' W 074°10'0 0.0
2014-Oct-16 17:27N 40°38' W 074°10'0 0.1
2014-Oct-16 16:33N 40°39' W 074°10'2 2.3
2014-Oct-16 15:34N 40°41' W 074°08'2 2.2
2014-Oct-16 14:33N 40°38' W 074°09'0 0.4
2014-Oct-16 13:33N 40°38' W 074°10'0 0.0
2014-Oct-16 12:33N 40°38' W 074°10'0 0.0
2014-Oct-16 10:33N 40°38' W 074°10'0 0.0
2014-Oct-16 09:30N 40°38' W 074°10'0 0.0
2014-Oct-16 08:12N 40°38' W 074°10'0 0.0
2014-Oct-16 07:32N 40°38' W 074°10'0 0.0
2014-Oct-16 06:13N 40°38' W 074°10'0 0.0
2014-Oct-16 05:29N 40°38' W 074°10'  
Track history (hours):
 
Tides and Currents Weather Stations Pressure Air Temp Water Temp Dewpoint Dewpoint Depression Visibility Wind Speed Wind Dir Waves Ship Positions

Elizabeth Mc Allister

Owner: MC ALLISTER TOWING & TRANSPORTATION INC, NEW YORK, NY. More information available from US FCC via Universal Licensing System and Coast Guard Vessel Documentation Center.

Last reported at 2014-Oct-26 04:33 UTC. Time now 2014-Oct-26 05:05 UTC.
Position N 40°38' W 074°10'.

Length 31 m.

Type: Tug. MMSI: 366945680.

Date/timePositionNaut miles runAvg speedWind from/ knotsBaromVisibWave heightAir tempDewpointWater temp
2014-Oct-26 04:33N 40°38' W 074°10'0 0.0
2014-Oct-26 03:33N 40°38' W 074°10'0 0.0
2014-Oct-26 02:33N 40°38' W 074°10'0 0.0
2014-Oct-26 01:24N 40°38' W 074°10'0 0.0
2014-Oct-26 00:32N 40°38' W 074°10'0 0.0
2014-Oct-25 23:24N 40°38' W 074°10'0 0.0
2014-Oct-25 22:33N 40°38' W 074°10'0 0.0
2014-Oct-25 21:32N 40°38' W 074°10'0 0.0
2014-Oct-25 18:21N 40°38' W 074°10'0 0.0
2014-Oct-25 16:32N 40°38' W 074°10'0 0.0
2014-Oct-25 15:33N 40°38' W 074°10'0 0.0
2014-Oct-25 14:33N 40°38' W 074°10'0 0.0
2014-Oct-25 13:32N 40°38' W 074°10'0 0.0
2014-Oct-25 12:31N 40°38' W 074°10'0 0.0
2014-Oct-25 11:33N 40°38' W 074°10'0 0.0
2014-Oct-25 10:34N 40°38' W 074°10'0 0.0
2014-Oct-25 09:33N 40°38' W 074°10'0 0.0
2014-Oct-25 08:33N 40°38' W 074°10'0 0.0
2014-Oct-25 07:32N 40°38' W 074°10'0 0.0
2014-Oct-25 06:33N 40°38' W 074°10'0 0.0
2014-Oct-25 05:32N 40°38' W 074°10'0 0.0
2014-Oct-25 04:33N 40°38' W 074°10'0 0.0
2014-Oct-25 03:14N 40°38' W 074°10'0 0.0
2014-Oct-25 02:33N 40°38' W 074°10'0 0.0
2014-Oct-25 01:06N 40°38' W 074°10'0 0.0
2014-Oct-25 00:17N 40°38' W 074°10'0 0.0
2014-Oct-24 23:27N 40°38' W 074°10'0 0.0
2014-Oct-24 22:22N 40°38' W 074°10'0 0.0
2014-Oct-24 21:32N 40°38' W 074°10'0 0.0
2014-Oct-24 20:33N 40°38' W 074°10'0 0.0
2014-Oct-24 19:33N 40°38' W 074°10'0 0.0
2014-Oct-24 18:30N 40°38' W 074°10'0 0.0
2014-Oct-24 17:33N 40°38' W 074°10'0 0.0
2014-Oct-24 16:32N 40°38' W 074°10'0 0.0
2014-Oct-24 15:33N 40°38' W 074°10'0 0.0
2014-Oct-24 14:33N 40°38' W 074°10'0 0.0
2014-Oct-24 13:33N 40°38' W 074°10'0 0.0
2014-Oct-24 12:33N 40°38' W 074°10'0 0.0
2014-Oct-24 11:33N 40°38' W 074°10'0 0.0
2014-Oct-24 10:33N 40°38' W 074°10'0 0.0
2014-Oct-24 09:33N 40°38' W 074°10'0 0.0
2014-Oct-24 08:33N 40°38' W 074°10'0 0.0
2014-Oct-24 07:33N 40°38' W 074°10'0 0.0
2014-Oct-24 06:33N 40°38' W 074°10'0 0.0
2014-Oct-24 05:33N 40°38' W 074°10'0 0.0
2014-Oct-24 04:33N 40°38' W 074°10'0 0.0
2014-Oct-24 03:33N 40°38' W 074°10'0 0.0
2014-Oct-24 02:33N 40°38' W 074°10'0 0.0
2014-Oct-24 01:33N 40°38' W 074°10'2 1.7
2014-Oct-24 00:29N 40°38' W 074°12'3 2.6
2014-Oct-23 23:26N 40°39' W 074°09'4 4.6
2014-Oct-23 22:33N 40°38' W 074°04'5 4.8
2014-Oct-23 21:33N 40°38' W 074°10'0 0.1
2014-Oct-23 20:33N 40°38' W 074°10'0 0.0
2014-Oct-23 19:33N 40°38' W 074°10'7 3.4
2014-Oct-23 17:32N 40°33' W 074°15'5 5.6
2014-Oct-23 16:33N 40°38' W 074°12'0 0.1
2014-Oct-23 15:30N 40°38' W 074°12'2 2.0
2014-Oct-23 14:33N 40°38' W 074°10'3 3.1
2014-Oct-23 13:33N 40°39' W 074°06'2 1.6
2014-Oct-23 12:33N 40°40' W 074°04'0 0.0
2014-Oct-23 11:33N 40°40' W 074°04'0 0.0
2014-Oct-23 10:33N 40°40' W 074°04'0 0.0
2014-Oct-23 09:33N 40°40' W 074°04'0 0.0
2014-Oct-23 08:33N 40°40' W 074°04'0 0.0
2014-Oct-23 07:33N 40°40' W 074°04'0 0.1
2014-Oct-23 06:33N 40°40' W 074°04'3 3.2
2014-Oct-23 05:33N 40°39' W 074°08'1 1.5
2014-Oct-23 04:33N 40°38' W 074°10'0 0.0
2014-Oct-23 03:33N 40°38' W 074°10'0 0.0
2014-Oct-23 02:33N 40°38' W 074°10'0 0.0
2014-Oct-23 01:33N 40°38' W 074°10'0 0.0
2014-Oct-23 00:33N 40°38' W 074°10'2 1.8
2014-Oct-22 23:31N 40°39' W 074°07'3 3.2
2014-Oct-22 22:33N 40°42' W 074°08'4 3.7
2014-Oct-22 21:33N 40°40' W 074°04'0 0.2
2014-Oct-22 20:33N 40°40' W 074°04'1 0.7
2014-Oct-22 19:33N 40°39' W 074°03'1 1.3
2014-Oct-22 18:33N 40°39' W 074°05'2 1.7
2014-Oct-22 17:33N 40°38' W 074°03'1 0.8
2014-Oct-22 16:33N 40°38' W 074°04'4 4.3
2014-Oct-22 15:33N 40°41' W 074°08'0 0.1
2014-Oct-22 14:33N 40°41' W 074°08'2 2.4
2014-Oct-22 13:33N 40°39' W 074°09'2 2.2
2014-Oct-22 12:33N 40°38' W 074°12'1 1.4
2014-Oct-22 11:33N 40°39' W 074°11'6 5.6
2014-Oct-22 10:33N 40°38' W 074°03'5 5.0
2014-Oct-22 09:33N 40°38' W 074°10'0 0.0
2014-Oct-22 08:33N 40°38' W 074°10'0 0.0
2014-Oct-22 07:33N 40°38' W 074°10'0 0.0
2014-Oct-22 06:33N 40°38' W 074°10'0 0.0
2014-Oct-22 05:33N 40°38' W 074°10'0 0.0
2014-Oct-22 04:33N 40°38' W 074°10'0 0.0
2014-Oct-22 03:33N 40°38' W 074°10'0 0.0
2014-Oct-22 02:33N 40°38' W 074°10'2 1.9
2014-Oct-22 01:33N 40°39' W 074°07'3 2.9
2014-Oct-22 00:33N 40°40' W 074°04'4 3.9
2014-Oct-21 23:33N 40°38' W 074°09'1 0.8
2014-Oct-21 22:33N 40°38' W 074°10'0 0.0
2014-Oct-21 21:33N 40°38' W 074°10'0 0.0
2014-Oct-21 20:33N 40°38' W 074°10'5 4.7
2014-Oct-21 19:33N 40°39' W 074°04'3 3.4
2014-Oct-21 18:33N 40°41' W 074°00'0 0.0
2014-Oct-21 17:33N 40°41' W 074°00'1 0.8
2014-Oct-21 16:33N 40°41' W 074°01'3 3.0
2014-Oct-21 15:33N 40°40' W 074°05'0 0.1
2014-Oct-21 14:33N 40°40' W 074°05'1 0.9
2014-Oct-21 13:33N 40°40' W 074°04'5 4.6
2014-Oct-21 12:33N 40°39' W 074°10'0 0.1
2014-Oct-21 11:33N 40°38' W 074°10'0 0.0
2014-Oct-21 10:33N 40°38' W 074°10'0 0.0
2014-Oct-21 09:33N 40°38' W 074°10'0 0.0
2014-Oct-21 08:33N 40°38' W 074°10'0 0.0
2014-Oct-21 07:31N 40°38' W 074°10'0 0.0
2014-Oct-21 06:33N 40°38' W 074°10'0 0.0
2014-Oct-21 05:32N 40°38' W 074°10'0 0.0
2014-Oct-21 04:33N 40°38' W 074°10'0 0.0
2014-Oct-21 03:33N 40°38' W 074°10'0 0.0
2014-Oct-21 02:33N 40°38' W 074°10'0 0.0
2014-Oct-21 01:33N 40°38' W 074°10'0 0.0
2014-Oct-21 00:33N 40°38' W 074°10'0 0.0
2014-Oct-20 23:33N 40°38' W 074°10'3 2.7
2014-Oct-20 22:33N 40°39' W 074°06'3 2.8
2014-Oct-20 21:32N 40°41' W 074°09'3 2.6
2014-Oct-20 20:33N 40°38' W 074°10'0 0.0
2014-Oct-20 19:33N 40°38' W 074°10'0 0.0
2014-Oct-20 18:33N 40°38' W 074°10'0 0.0
2014-Oct-20 17:33N 40°38' W 074°10'0 0.0
2014-Oct-20 16:33N 40°38' W 074°10'0 0.0
2014-Oct-20 15:33N 40°38' W 074°10'0 0.0
2014-Oct-20 14:33N 40°38' W 074°10'0 0.0
2014-Oct-20 13:33N 40°38' W 074°10'4 4.1
2014-Oct-20 12:33N 40°40' W 074°05'3 3.2
2014-Oct-20 11:33N 40°38' W 074°03'3 3.1
2014-Oct-20 10:33N 40°39' W 074°07'2 2.3
2014-Oct-20 09:33N 40°38' W 074°04'4 3.8
2014-Oct-20 08:32N 40°39' W 074°09'1 0.5
2014-Oct-20 07:33N 40°39' W 074°09'1 0.7
2014-Oct-20 06:34N 40°38' W 074°10'0 0.0
2014-Oct-20 05:34N 40°38' W 074°10'0 0.0
2014-Oct-20 04:33N 40°38' W 074°10'0 0.0
2014-Oct-20 03:34N 40°38' W 074°10'0 0.0
2014-Oct-20 02:34N 40°38' W 074°10'2 2.0
2014-Oct-20 01:33N 40°40' W 074°08'4 3.7
2014-Oct-20 00:34N 40°39' W 074°04'4 4.4
2014-Oct-19 23:33N 40°38' W 074°10'0 0.1
2014-Oct-19 22:34N 40°38' W 074°10'0 0.0
2014-Oct-19 21:33N 40°38' W 074°10'0 0.0
2014-Oct-19 20:33N 40°38' W 074°10'0 0.0
2014-Oct-19 19:31N 40°38' W 074°10'0 0.0
2014-Oct-19 18:34N 40°38' W 074°10'0 0.0
2014-Oct-19 17:33N 40°38' W 074°10'0 0.0
2014-Oct-19 16:33N 40°38' W 074°10'0 0.0
2014-Oct-19 15:33N 40°38' W 074°10'0 0.0
2014-Oct-19 14:33N 40°38' W 074°10'0 0.0
2014-Oct-19 13:34N 40°38' W 074°10'0 0.0
2014-Oct-19 12:34N 40°38' W 074°10'0 0.0
2014-Oct-19 11:34N 40°38' W 074°10'0 0.0
2014-Oct-19 10:33N 40°38' W 074°10'0 0.0
2014-Oct-19 09:29N 40°38' W 074°10'0 0.0
2014-Oct-19 08:33N 40°38' W 074°10'0 0.0
2014-Oct-19 07:33N 40°38' W 074°10'0 0.0
2014-Oct-19 06:33N 40°38' W 074°10'0 0.1
2014-Oct-19 05:33N 40°38' W 074°10'2 2.1
2014-Oct-19 04:33N 40°40' W 074°08'0 0.2
2014-Oct-19 03:31N 40°40' W 074°08'0 0.0
2014-Oct-19 02:33N 40°40' W 074°08'0 0.0
2014-Oct-19 01:34N 40°40' W 074°08'1 0.7
2014-Oct-19 00:33N 40°40' W 074°09'4 0.8
2014-Oct-18 19:27N 40°36' W 074°12'0 0.0
2014-Oct-18 18:31N 40°36' W 074°12'3 3.2
2014-Oct-18 17:33N 40°38' W 074°09'1 0.5
2014-Oct-18 16:29N 40°38' W 074°10'1 0.9
2014-Oct-18 15:30N 40°39' W 074°09'1 0.8
2014-Oct-18 14:33N 40°39' W 074°08'1 1.2
2014-Oct-18 13:30N 40°38' W 074°10'0 0.0
2014-Oct-18 12:33N 40°38' W 074°10'5 4.5
2014-Oct-18 11:31N 40°40' W 074°04'2 2.3
2014-Oct-18 10:33N 40°38' W 074°03'5 5.2
2014-Oct-18 09:34N 40°38' W 074°10'0 0.0
2014-Oct-18 08:34N 40°38' W 074°10'0 0.0
2014-Oct-18 07:34N 40°38' W 074°10'0 0.0
2014-Oct-18 06:33N 40°38' W 074°10'0 0.0
2014-Oct-18 05:34N 40°38' W 074°10'0 0.0
2014-Oct-18 04:33N 40°38' W 074°10'0 0.0
2014-Oct-18 03:33N 40°38' W 074°10'0 0.0
2014-Oct-18 02:33N 40°38' W 074°10'0 0.0
2014-Oct-18 01:33N 40°38' W 074°10'0 0.0
2014-Oct-18 00:33N 40°38' W 074°10'0 0.0
2014-Oct-17 23:33N 40°38' W 074°10'0 0.0
2014-Oct-17 22:34N 40°38' W 074°10'0 0.0
2014-Oct-17 21:34N 40°38' W 074°10'0 0.0
2014-Oct-17 20:33N 40°38' W 074°10'0 0.0
2014-Oct-17 19:34N 40°38' W 074°10'1 1.4
2014-Oct-17 18:33N 40°38' W 074°12'5 4.5
2014-Oct-17 17:22N 40°33' W 074°14'0 0.0
2014-Oct-17 15:15N 40°33' W 074°14'5 2.9
2014-Oct-17 13:33N 40°38' W 074°12'0 0.1
2014-Oct-17 12:21N 40°38' W 074°12'2 1.1
2014-Oct-17 10:33N 40°39' W 074°10'4 4.1
2014-Oct-17 09:34N 40°39' W 074°05'1 1.0
2014-Oct-17 08:33N 40°40' W 074°05'4 4.3
2014-Oct-17 07:33N 40°38' W 074°10'0 0.0
2014-Oct-17 06:33N 40°38' W 074°10'0 0.0
2014-Oct-17 05:23N 40°38' W 074°10'0 0.0
2014-Oct-17 04:34N 40°38' W 074°10'0 0.0
2014-Oct-17 03:31N 40°38' W 074°10'0 0.0
2014-Oct-17 02:28N 40°38' W 074°10'0 0.0
2014-Oct-17 01:08N 40°38' W 074°10'0 0.0
2014-Oct-17 00:30N 40°38' W 074°10'0 0.0
2014-Oct-16 23:26N 40°38' W 074°10'0 0.0
2014-Oct-16 22:28N 40°38' W 074°10'5 5.0
2014-Oct-16 21:34N 40°40' W 074°04'1 1.2
2014-Oct-16 20:33N 40°39' W 074°03'4 3.8
2014-Oct-16 19:33N 40°39' W 074°08'1 1.1
2014-Oct-16 18:33N 40°38' W 074°10'0 0.0
2014-Oct-16 17:27N 40°38' W 074°10'0 0.1
2014-Oct-16 16:33N 40°39' W 074°10'2 2.3
2014-Oct-16 15:34N 40°41' W 074°08'2 2.2
2014-Oct-16 14:33N 40°38' W 074°09'0 0.4
2014-Oct-16 13:33N 40°38' W 074°10'0 0.0
2014-Oct-16 12:33N 40°38' W 074°10'0 0.0
2014-Oct-16 10:33N 40°38' W 074°10'0 0.0
2014-Oct-16 09:30N 40°38' W 074°10'0 0.0
2014-Oct-16 08:12N 40°38' W 074°10'0 0.0
2014-Oct-16 07:32N 40°38' W 074°10'0 0.0
2014-Oct-16 06:13N 40°38' W 074°10'0 0.0
2014-Oct-16 05:29N 40°38' W 074°10'  

Dump ship's entire track history